sensor_id;sensor_type;location;lat;lon;timestamp;temperature;humidity
4520;DHT22;2272;49.226;8.108;2023-06-22T00:01:19;20.50;99.90
4520;DHT22;2272;49.226;8.108;2023-06-22T00:03:46;20.60;99.90
4520;DHT22;2272;49.226;8.108;2023-06-22T00:06:13;20.70;99.90
4520;DHT22;2272;49.226;8.108;2023-06-22T00:08:40;20.80;99.90
4520;DHT22;2272;49.226;8.108;2023-06-22T00:11:08;20.80;99.90
4520;DHT22;2272;49.226;8.108;2023-06-22T00:13:35;20.80;99.90
4520;DHT22;2272;49.226;8.108;2023-06-22T00:16:02;20.80;99.90
4520;DHT22;2272;49.226;8.108;2023-06-22T00:18:29;20.80;99.90
4520;DHT22;2272;49.226;8.108;2023-06-22T00:20:57;21.00;99.90
4520;DHT22;2272;49.226;8.108;2023-06-22T00:23:25;21.20;99.90
4520;DHT22;2272;49.226;8.108;2023-06-22T00:25:52;21.20;99.90
4520;DHT22;2272;49.226;8.108;2023-06-22T00:28:20;21.10;99.90
4520;DHT22;2272;49.226;8.108;2023-06-22T00:30:48;20.60;99.90
4520;DHT22;2272;49.226;8.108;2023-06-22T00:33:15;20.20;99.90
4520;DHT22;2272;49.226;8.108;2023-06-22T00:35:42;19.90;99.90
4520;DHT22;2272;49.226;8.108;2023-06-22T00:38:09;19.70;99.90
4520;DHT22;2272;49.226;8.108;2023-06-22T00:40:35;19.50;99.90
4520;DHT22;2272;49.226;8.108;2023-06-22T00:43:02;19.30;99.90
4520;DHT22;2272;49.226;8.108;2023-06-22T00:45:31;19.20;99.90
4520;DHT22;2272;49.226;8.108;2023-06-22T00:47:58;19.20;99.90
4520;DHT22;2272;49.226;8.108;2023-06-22T00:50:27;19.10;99.90
4520;DHT22;2272;49.226;8.108;2023-06-22T00:52:56;19.10;99.90
4520;DHT22;2272;49.226;8.108;2023-06-22T00:55:24;19.10;99.90
4520;DHT22;2272;49.226;8.108;2023-06-22T00:57:52;19.00;99.90
4520;DHT22;2272;49.226;8.108;2023-06-22T01:00:21;19.00;99.90
4520;DHT22;2272;49.226;8.108;2023-06-22T01:02:52;19.10;99.90
4520;DHT22;2272;49.226;8.108;2023-06-22T01:05:20;19.10;99.90
4520;DHT22;2272;49.226;8.108;2023-06-22T01:07:56;19.10;99.90
4520;DHT22;2272;49.226;8.108;2023-06-22T01:10:31;19.00;99.90
4520;DHT22;2272;49.226;8.108;2023-06-22T01:13:02;19.00;99.90
4520;DHT22;2272;49.226;8.108;2023-06-22T01:15:34;19.00;99.90
4520;DHT22;2272;49.226;8.108;2023-06-22T01:18:05;19.00;99.90
4520;DHT22;2272;49.226;8.108;2023-06-22T01:20:34;19.00;99.90
4520;DHT22;2272;49.226;8.108;2023-06-22T01:23:10;19.00;99.90
4520;DHT22;2272;49.226;8.108;2023-06-22T01:25:46;19.00;99.90
4520;DHT22;2272;49.226;8.108;2023-06-22T01:28:23;19.00;99.90
4520;DHT22;2272;49.226;8.108;2023-06-22T01:30:52;19.00;99.90
4520;DHT22;2272;49.226;8.108;2023-06-22T01:33:29;18.90;99.90
4520;DHT22;2272;49.226;8.108;2023-06-22T01:35:57;18.90;99.90
4520;DHT22;2272;49.226;8.108;2023-06-22T01:38:25;18.90;99.90
4520;DHT22;2272;49.226;8.108;2023-06-22T01:40:52;18.80;99.90
4520;DHT22;2272;49.226;8.108;2023-06-22T01:43:21;18.80;99.90
4520;DHT22;2272;49.226;8.108;2023-06-22T01:45:48;18.80;99.90
4520;DHT22;2272;49.226;8.108;2023-06-22T01:48:17;18.80;99.90
4520;DHT22;2272;49.226;8.108;2023-06-22T01:50:44;18.80;99.90
4520;DHT22;2272;49.226;8.108;2023-06-22T01:53:11;18.90;99.90
4520;DHT22;2272;49.226;8.108;2023-06-22T01:55:38;18.80;99.90
4520;DHT22;2272;49.226;8.108;2023-06-22T01:58:05;18.80;99.90
4520;DHT22;2272;49.226;8.108;2023-06-22T02:00:33;18.80;99.90
4520;DHT22;2272;49.226;8.108;2023-06-22T02:03:07;18.80;99.90
4520;DHT22;2272;49.226;8.108;2023-06-22T02:05:39;18.80;99.90
4520;DHT22;2272;49.226;8.108;2023-06-22T02:08:11;18.80;99.90
4520;DHT22;2272;49.226;8.108;2023-06-22T02:10:42;18.70;99.90
4520;DHT22;2272;49.226;8.108;2023-06-22T02:13:11;18.70;99.90
4520;DHT22;2272;49.226;8.108;2023-06-22T02:15:39;18.70;99.90
4520;DHT22;2272;49.226;8.108;2023-06-22T02:18:06;18.70;99.90
4520;DHT22;2272;49.226;8.108;2023-06-22T02:20:37;18.60;99.90
4520;DHT22;2272;49.226;8.108;2023-06-22T02:23:05;18.70;99.90
4520;DHT22;2272;49.226;8.108;2023-06-22T02:25:32;18.70;99.90
4520;DHT22;2272;49.226;8.108;2023-06-22T02:27:59;18.70;99.90
4520;DHT22;2272;49.226;8.108;2023-06-22T02:30:26;18.60;99.90
4520;DHT22;2272;49.226;8.108;2023-06-22T02:32:52;18.60;99.90
4520;DHT22;2272;49.226;8.108;2023-06-22T02:35:24;18.60;99.90
4520;DHT22;2272;49.226;8.108;2023-06-22T02:37:52;18.60;99.90
4520;DHT22;2272;49.226;8.108;2023-06-22T02:40:19;18.50;99.90
4520;DHT22;2272;49.226;8.108;2023-06-22T02:42:46;18.50;99.90
4520;DHT22;2272;49.226;8.108;2023-06-22T02:45:13;18.50;99.90
4520;DHT22;2272;49.226;8.108;2023-06-22T02:47:40;18.40;99.90
4520;DHT22;2272;49.226;8.108;2023-06-22T02:50:07;18.50;99.90
4520;DHT22;2272;49.226;8.108;2023-06-22T02:52:34;18.40;99.90
4520;DHT22;2272;49.226;8.108;2023-06-22T02:55:02;18.40;99.90
4520;DHT22;2272;49.226;8.108;2023-06-22T02:57:30;18.40;99.90
4520;DHT22;2272;49.226;8.108;2023-06-22T02:59:56;18.40;99.90
4520;DHT22;2272;49.226;8.108;2023-06-22T03:02:23;18.40;99.90
4520;DHT22;2272;49.226;8.108;2023-06-22T03:04:51;18.30;99.90
4520;DHT22;2272;49.226;8.108;2023-06-22T03:07:19;18.30;99.90
4520;DHT22;2272;49.226;8.108;2023-06-22T03:09:45;18.30;99.90
4520;DHT22;2272;49.226;8.108;2023-06-22T03:12:14;18.30;99.90
4520;DHT22;2272;49.226;8.108;2023-06-22T03:14:40;18.20;99.90
4520;DHT22;2272;49.226;8.108;2023-06-22T03:17:07;18.20;99.90
4520;DHT22;2272;49.226;8.108;2023-06-22T03:19:34;18.20;99.90
4520;DHT22;2272;49.226;8.108;2023-06-22T03:22:00;18.20;99.90
4520;DHT22;2272;49.226;8.108;2023-06-22T03:24:27;18.20;99.90
4520;DHT22;2272;49.226;8.108;2023-06-22T03:26:55;18.20;99.90
4520;DHT22;2272;49.226;8.108;2023-06-22T03:29:23;18.20;99.90
4520;DHT22;2272;49.226;8.108;2023-06-22T03:31:50;18.20;99.90
4520;DHT22;2272;49.226;8.108;2023-06-22T03:34:17;18.20;99.90
4520;DHT22;2272;49.226;8.108;2023-06-22T03:36:44;18.20;99.90
4520;DHT22;2272;49.226;8.108;2023-06-22T03:39:11;18.20;99.90
4520;DHT22;2272;49.226;8.108;2023-06-22T03:41:38;18.20;99.90
4520;DHT22;2272;49.226;8.108;2023-06-22T03:44:05;18.20;99.90
4520;DHT22;2272;49.226;8.108;2023-06-22T03:46:33;18.20;99.90
4520;DHT22;2272;49.226;8.108;2023-06-22T03:49:00;18.20;99.90
4520;DHT22;2272;49.226;8.108;2023-06-22T03:51:28;18.20;99.90
4520;DHT22;2272;49.226;8.108;2023-06-22T03:53:55;18.20;99.90
4520;DHT22;2272;49.226;8.108;2023-06-22T03:56:22;18.30;99.90
4520;DHT22;2272;49.226;8.108;2023-06-22T03:58:49;18.30;99.90
4520;DHT22;2272;49.226;8.108;2023-06-22T04:01:16;18.30;99.90
4520;DHT22;2272;49.226;8.108;2023-06-22T04:03:44;18.30;99.90
4520;DHT22;2272;49.226;8.108;2023-06-22T04:06:13;18.40;99.90
4520;DHT22;2272;49.226;8.108;2023-06-22T04:08:41;18.40;99.90
4520;DHT22;2272;49.226;8.108;2023-06-22T04:11:08;18.40;99.90
4520;DHT22;2272;49.226;8.108;2023-06-22T04:13:35;18.50;99.90
4520;DHT22;2272;49.226;8.108;2023-06-22T04:18:29;18.50;99.90
4520;DHT22;2272;49.226;8.108;2023-06-22T04:20:57;18.60;99.90
4520;DHT22;2272;49.226;8.108;2023-06-22T04:23:24;18.70;99.90
4520;DHT22;2272;49.226;8.108;2023-06-22T04:25:51;18.80;99.90
4520;DHT22;2272;49.226;8.108;2023-06-22T04:28:17;18.90;99.90
4520;DHT22;2272;49.226;8.108;2023-06-22T04:30:44;19.00;99.90
4520;DHT22;2272;49.226;8.108;2023-06-22T04:33:13;19.10;99.90
4520;DHT22;2272;49.226;8.108;2023-06-22T04:35:40;19.30;99.90
4520;DHT22;2272;49.226;8.108;2023-06-22T04:38:09;19.40;99.90
4520;DHT22;2272;49.226;8.108;2023-06-22T04:40:38;19.50;99.90
4520;DHT22;2272;49.226;8.108;2023-06-22T04:43:05;19.60;99.90
4520;DHT22;2272;49.226;8.108;2023-06-22T04:45:32;19.80;99.90
4520;DHT22;2272;49.226;8.108;2023-06-22T04:47:59;19.90;99.90
4520;DHT22;2272;49.226;8.108;2023-06-22T04:50:25;21.70;99.90
4520;DHT22;2272;49.226;8.108;2023-06-22T04:52:52;20.20;99.90
4520;DHT22;2272;49.226;8.108;2023-06-22T04:55:20;20.30;99.90
4520;DHT22;2272;49.226;8.108;2023-06-22T04:57:47;20.40;99.90
4520;DHT22;2272;49.226;8.108;2023-06-22T05:00:16;20.60;99.90
4520;DHT22;2272;49.226;8.108;2023-06-22T05:02:44;20.60;99.90
4520;DHT22;2272;49.226;8.108;2023-06-22T05:05:11;20.80;99.90
4520;DHT22;2272;49.226;8.108;2023-06-22T05:07:41;21.00;99.90
4520;DHT22;2272;49.226;8.108;2023-06-22T05:10:09;21.10;99.90
4520;DHT22;2272;49.226;8.108;2023-06-22T05:12:38;21.20;99.90
4520;DHT22;2272;49.226;8.108;2023-06-22T05:15:06;21.40;99.90
4520;DHT22;2272;49.226;8.108;2023-06-22T05:17:33;21.50;99.90
4520;DHT22;2272;49.226;8.108;2023-06-22T05:20:00;21.70;99.90
4520;DHT22;2272;49.226;8.108;2023-06-22T05:22:27;22.10;99.90
4520;DHT22;2272;49.226;8.108;2023-06-22T05:24:54;22.80;99.90
4520;DHT22;2272;49.226;8.108;2023-06-22T05:27:20;23.30;99.90
4520;DHT22;2272;49.226;8.108;2023-06-22T05:29:48;23.60;99.90
4520;DHT22;2272;49.226;8.108;2023-06-22T05:32:15;23.80;99.90
4520;DHT22;2272;49.226;8.108;2023-06-22T05:34:42;23.90;99.90
4520;DHT22;2272;49.226;8.108;2023-06-22T05:37:08;24.10;99.90
4520;DHT22;2272;49.226;8.108;2023-06-22T05:39:36;23.90;99.90
4520;DHT22;2272;49.226;8.108;2023-06-22T05:42:04;24.00;99.90
4520;DHT22;2272;49.226;8.108;2023-06-22T05:44:31;24.10;99.90
4520;DHT22;2272;49.226;8.108;2023-06-22T05:47:00;24.30;99.90
4520;DHT22;2272;49.226;8.108;2023-06-22T05:49:26;24.40;99.90
4520;DHT22;2272;49.226;8.108;2023-06-22T05:51:55;24.30;99.90
4520;DHT22;2272;49.226;8.108;2023-06-22T05:54:21;24.30;99.90
4520;DHT22;2272;49.226;8.108;2023-06-22T05:56:48;24.30;99.90
4520;DHT22;2272;49.226;8.108;2023-06-22T05:59:15;24.40;99.90
4520;DHT22;2272;49.226;8.108;2023-06-22T06:01:42;24.40;99.90
4520;DHT22;2272;49.226;8.108;2023-06-22T06:04:10;24.40;99.90
4520;DHT22;2272;49.226;8.108;2023-06-22T06:06:36;24.40;99.90
4520;DHT22;2272;49.226;8.108;2023-06-22T06:09:03;24.40;99.90
4520;DHT22;2272;49.226;8.108;2023-06-22T06:11:30;24.30;99.90
4520;DHT22;2272;49.226;8.108;2023-06-22T06:13:57;24.40;99.90
4520;DHT22;2272;49.226;8.108;2023-06-22T06:16:24;24.70;99.90
4520;DHT22;2272;49.226;8.108;2023-06-22T06:18:50;24.90;99.90
4520;DHT22;2272;49.226;8.108;2023-06-22T06:21:20;25.00;99.90
4520;DHT22;2272;49.226;8.108;2023-06-22T06:23:47;25.00;99.90
4520;DHT22;2272;49.226;8.108;2023-06-22T06:26:14;25.20;99.90
4520;DHT22;2272;49.226;8.108;2023-06-22T06:28:42;25.20;99.90
4520;DHT22;2272;49.226;8.108;2023-06-22T06:31:08;25.10;99.90
4520;DHT22;2272;49.226;8.108;2023-06-22T06:33:36;25.00;99.90
4520;DHT22;2272;49.226;8.108;2023-06-22T06:36:03;24.90;99.90
4520;DHT22;2272;49.226;8.108;2023-06-22T06:38:31;25.00;99.90
4520;DHT22;2272;49.226;8.108;2023-06-22T06:40:58;24.90;99.90
4520;DHT22;2272;49.226;8.108;2023-06-22T06:43:25;24.70;99.90
4520;DHT22;2272;49.226;8.108;2023-06-22T06:45:52;24.70;99.90
4520;DHT22;2272;49.226;8.108;2023-06-22T06:48:19;24.70;99.90
4520;DHT22;2272;49.226;8.108;2023-06-22T06:50:45;24.70;99.90
4520;DHT22;2272;49.226;8.108;2023-06-22T06:53:12;24.80;99.90
4520;DHT22;2272;49.226;8.108;2023-06-22T06:55:40;24.90;99.90
4520;DHT22;2272;49.226;8.108;2023-06-22T06:58:07;25.00;99.90
4520;DHT22;2272;49.226;8.108;2023-06-22T07:00:35;24.90;99.90
4520;DHT22;2272;49.226;8.108;2023-06-22T07:03:02;24.80;99.90
4520;DHT22;2272;49.226;8.108;2023-06-22T07:05:29;24.80;99.90
4520;DHT22;2272;49.226;8.108;2023-06-22T07:07:55;24.80;99.90
4520;DHT22;2272;49.226;8.108;2023-06-22T07:10:22;25.00;99.90
4520;DHT22;2272;49.226;8.108;2023-06-22T07:12:50;25.00;99.90
4520;DHT22;2272;49.226;8.108;2023-06-22T07:15:17;25.10;99.90
4520;DHT22;2272;49.226;8.108;2023-06-22T07:17:44;25.20;99.90
4520;DHT22;2272;49.226;8.108;2023-06-22T07:20:11;25.30;99.90
4520;DHT22;2272;49.226;8.108;2023-06-22T07:22:38;25.40;99.90
4520;DHT22;2272;49.226;8.108;2023-06-22T07:25:06;25.50;99.90
4520;DHT22;2272;49.226;8.108;2023-06-22T07:27:36;25.60;99.90
4520;DHT22;2272;49.226;8.108;2023-06-22T07:30:06;25.80;99.90
4520;DHT22;2272;49.226;8.108;2023-06-22T07:32:34;25.90;99.90
4520;DHT22;2272;49.226;8.108;2023-06-22T07:35:02;25.90;99.90
4520;DHT22;2272;49.226;8.108;2023-06-22T07:37:29;25.80;99.90
4520;DHT22;2272;49.226;8.108;2023-06-22T07:39:59;25.80;99.90
4520;DHT22;2272;49.226;8.108;2023-06-22T07:42:26;25.90;99.90
4520;DHT22;2272;49.226;8.108;2023-06-22T07:44:54;26.20;99.90
4520;DHT22;2272;49.226;8.108;2023-06-22T07:47:22;26.30;99.90
4520;DHT22;2272;49.226;8.108;2023-06-22T07:49:51;26.30;99.90
4520;DHT22;2272;49.226;8.108;2023-06-22T07:52:20;26.30;99.90
4520;DHT22;2272;49.226;8.108;2023-06-22T07:54:47;26.30;99.90
4520;DHT22;2272;49.226;8.108;2023-06-22T07:57:13;26.50;99.90
4520;DHT22;2272;49.226;8.108;2023-06-22T07:59:40;26.90;99.90
4520;DHT22;2272;49.226;8.108;2023-06-22T08:02:07;27.40;99.90
4520;DHT22;2272;49.226;8.108;2023-06-22T08:04:36;27.30;99.90
4520;DHT22;2272;49.226;8.108;2023-06-22T08:07:03;27.30;99.90
4520;DHT22;2272;49.226;8.108;2023-06-22T08:09:31;27.50;99.90
4520;DHT22;2272;49.226;8.108;2023-06-22T08:11:58;27.60;99.90
4520;DHT22;2272;49.226;8.108;2023-06-22T08:14:25;27.60;99.90
4520;DHT22;2272;49.226;8.108;2023-06-22T08:16:52;27.70;99.90
4520;DHT22;2272;49.226;8.108;2023-06-22T08:19:19;27.80;99.90
4520;DHT22;2272;49.226;8.108;2023-06-22T08:21:47;27.80;99.90
4520;DHT22;2272;49.226;8.108;2023-06-22T08:24:13;27.80;99.90
4520;DHT22;2272;49.226;8.108;2023-06-22T08:26:40;27.90;99.90
4520;DHT22;2272;49.226;8.108;2023-06-22T08:29:07;28.00;99.90
4520;DHT22;2272;49.226;8.108;2023-06-22T08:31:34;28.00;99.90
4520;DHT22;2272;49.226;8.108;2023-06-22T08:34:01;28.40;99.90
4520;DHT22;2272;49.226;8.108;2023-06-22T08:36:27;28.80;99.90
4520;DHT22;2272;49.226;8.108;2023-06-22T08:39:02;29.10;99.90
4520;DHT22;2272;49.226;8.108;2023-06-22T08:41:28;29.30;99.90
4520;DHT22;2272;49.226;8.108;2023-06-22T08:43:55;29.50;99.90
4520;DHT22;2272;49.226;8.108;2023-06-22T08:46:23;29.60;99.90
4520;DHT22;2272;49.226;8.108;2023-06-22T08:48:55;29.80;99.90
4520;DHT22;2272;49.226;8.108;2023-06-22T08:51:22;30.00;99.90
4520;DHT22;2272;49.226;8.108;2023-06-22T08:53:49;30.10;99.90
4520;DHT22;2272;49.226;8.108;2023-06-22T08:56:17;30.30;99.90
4520;DHT22;2272;49.226;8.108;2023-06-22T08:58:44;30.40;99.90
4520;DHT22;2272;49.226;8.108;2023-06-22T09:01:11;30.20;99.90
4520;DHT22;2272;49.226;8.108;2023-06-22T09:03:37;30.00;99.90
4520;DHT22;2272;49.226;8.108;2023-06-22T09:06:04;29.70;99.90
4520;DHT22;2272;49.226;8.108;2023-06-22T09:08:31;29.40;99.90
4520;DHT22;2272;49.226;8.108;2023-06-22T09:10:58;29.30;99.90
4520;DHT22;2272;49.226;8.108;2023-06-22T09:13:26;29.30;99.90
4520;DHT22;2272;49.226;8.108;2023-06-22T09:15:52;29.50;99.90
4520;DHT22;2272;49.226;8.108;2023-06-22T09:18:19;29.50;99.90
4520;DHT22;2272;49.226;8.108;2023-06-22T09:20:46;29.60;99.90
4520;DHT22;2272;49.226;8.108;2023-06-22T09:23:12;29.60;99.90
4520;DHT22;2272;49.226;8.108;2023-06-22T09:25:40;29.90;99.90
4520;DHT22;2272;49.226;8.108;2023-06-22T09:28:07;30.10;99.90
4520;DHT22;2272;49.226;8.108;2023-06-22T09:30:35;30.20;99.90
4520;DHT22;2272;49.226;8.108;2023-06-22T09:33:01;30.20;99.90
4520;DHT22;2272;49.226;8.108;2023-06-22T09:35:28;30.20;99.90
4520;DHT22;2272;49.226;8.108;2023-06-22T09:37:55;30.20;99.90
4520;DHT22;2272;49.226;8.108;2023-06-22T09:40:21;30.30;99.90
4520;DHT22;2272;49.226;8.108;2023-06-22T09:42:48;30.50;99.90
4520;DHT22;2272;49.226;8.108;2023-06-22T09:45:15;30.50;99.90
4520;DHT22;2272;49.226;8.108;2023-06-22T09:47:43;30.40;99.90
4520;DHT22;2272;49.226;8.108;2023-06-22T09:50:10;30.50;99.90
4520;DHT22;2272;49.226;8.108;2023-06-22T09:52:37;30.70;99.90
4520;DHT22;2272;49.226;8.108;2023-06-22T09:55:04;30.80;99.90
4520;DHT22;2272;49.226;8.108;2023-06-22T09:57:31;30.90;99.90
4520;DHT22;2272;49.226;8.108;2023-06-22T09:59:58;31.00;99.90
4520;DHT22;2272;49.226;8.108;2023-06-22T10:02:25;31.20;99.90
4520;DHT22;2272;49.226;8.108;2023-06-22T10:04:53;31.60;99.90
4520;DHT22;2272;49.226;8.108;2023-06-22T10:07:19;32.30;99.90
4520;DHT22;2272;49.226;8.108;2023-06-22T10:09:46;32.70;99.90
4520;DHT22;2272;49.226;8.108;2023-06-22T10:12:13;32.90;99.90
4520;DHT22;2272;49.226;8.108;2023-06-22T10:14:40;32.90;99.90
4520;DHT22;2272;49.226;8.108;2023-06-22T10:17:06;32.80;99.90
4520;DHT22;2272;49.226;8.108;2023-06-22T10:19:33;32.70;99.90
4520;DHT22;2272;49.226;8.108;2023-06-22T10:22:04;32.50;99.90
4520;DHT22;2272;49.226;8.108;2023-06-22T10:24:31;32.10;99.90
4520;DHT22;2272;49.226;8.108;2023-06-22T10:26:58;31.90;99.90
4520;DHT22;2272;49.226;8.108;2023-06-22T10:29:25;31.90;99.90
4520;DHT22;2272;49.226;8.108;2023-06-22T10:31:52;32.00;99.90
4520;DHT22;2272;49.226;8.108;2023-06-22T10:34:18;32.00;99.90
4520;DHT22;2272;49.226;8.108;2023-06-22T10:36:45;32.00;99.90
4520;DHT22;2272;49.226;8.108;2023-06-22T10:39:15;32.00;99.90
4520;DHT22;2272;49.226;8.108;2023-06-22T10:41:42;32.10;99.90
4520;DHT22;2272;49.226;8.108;2023-06-22T10:44:08;32.20;99.90
4520;DHT22;2272;49.226;8.108;2023-06-22T10:46:35;32.40;99.90
4520;DHT22;2272;49.226;8.108;2023-06-22T10:49:02;32.60;99.90
4520;DHT22;2272;49.226;8.108;2023-06-22T10:51:28;32.70;99.90
4520;DHT22;2272;49.226;8.108;2023-06-22T10:53:56;32.90;99.90
4520;DHT22;2272;49.226;8.108;2023-06-22T10:56:25;33.30;99.90
4520;DHT22;2272;49.226;8.108;2023-06-22T10:58:51;33.60;99.90
4520;DHT22;2272;49.226;8.108;2023-06-22T11:03:45;33.80;99.90
4520;DHT22;2272;49.226;8.108;2023-06-22T11:06:12;33.60;99.90
4520;DHT22;2272;49.226;8.108;2023-06-22T11:08:40;33.60;99.90
4520;DHT22;2272;49.226;8.108;2023-06-22T11:11:06;33.60;99.90
4520;DHT22;2272;49.226;8.108;2023-06-22T11:13:34;33.70;99.90
4520;DHT22;2272;49.226;8.108;2023-06-22T11:16:01;33.80;99.90
4520;DHT22;2272;49.226;8.108;2023-06-22T11:18:28;33.90;99.90
4520;DHT22;2272;49.226;8.108;2023-06-22T11:20:54;34.00;99.90
4520;DHT22;2272;49.226;8.108;2023-06-22T11:23:21;34.20;99.90
4520;DHT22;2272;49.226;8.108;2023-06-22T11:25:48;34.30;99.90
4520;DHT22;2272;49.226;8.108;2023-06-22T11:28:15;34.50;99.90
4520;DHT22;2272;49.226;8.108;2023-06-22T11:30:43;34.60;99.80
4520;DHT22;2272;49.226;8.108;2023-06-22T11:33:09;34.90;98.90
4520;DHT22;2272;49.226;8.108;2023-06-22T11:35:36;35.00;98.70
4520;DHT22;2272;49.226;8.108;2023-06-22T11:38:03;35.00;98.10
4520;DHT22;2272;49.226;8.108;2023-06-22T11:40:30;34.90;97.60
4520;DHT22;2272;49.226;8.108;2023-06-22T11:42:57;34.80;97.10
4520;DHT22;2272;49.226;8.108;2023-06-22T11:45:23;34.90;96.90
4520;DHT22;2272;49.226;8.108;2023-06-22T11:47:51;35.10;96.70
4520;DHT22;2272;49.226;8.108;2023-06-22T11:52:45;35.80;99.90
4520;DHT22;2272;49.226;8.108;2023-06-22T11:55:12;36.30;94.80
4520;DHT22;2272;49.226;8.108;2023-06-22T11:57:52;36.70;94.60
4520;DHT22;2272;49.226;8.108;2023-06-22T12:00:19;37.00;94.10
4520;DHT22;2272;49.226;8.108;2023-06-22T12:02:48;37.00;93.50
4520;DHT22;2272;49.226;8.108;2023-06-22T12:05:16;36.90;93.30
4520;DHT22;2272;49.226;8.108;2023-06-22T12:07:43;36.90;93.20
4520;DHT22;2272;49.226;8.108;2023-06-22T12:10:10;36.80;92.80
4520;DHT22;2272;49.226;8.108;2023-06-22T12:12:36;36.60;93.10
4520;DHT22;2272;49.226;8.108;2023-06-22T12:15:04;36.40;93.30
4520;DHT22;2272;49.226;8.108;2023-06-22T12:17:31;36.10;93.30
4520;DHT22;2272;49.226;8.108;2023-06-22T12:19:58;35.90;93.70
4520;DHT22;2272;49.226;8.108;2023-06-22T12:22:26;35.80;93.80
4520;DHT22;2272;49.226;8.108;2023-06-22T12:24:53;36.10;93.50
4520;DHT22;2272;49.226;8.108;2023-06-22T12:27:19;36.40;93.10
4520;DHT22;2272;49.226;8.108;2023-06-22T12:29:46;36.50;92.50
4520;DHT22;2272;49.226;8.108;2023-06-22T12:32:14;36.50;92.00
4520;DHT22;2272;49.226;8.108;2023-06-22T12:34:42;36.50;92.10
4520;DHT22;2272;49.226;8.108;2023-06-22T12:37:09;36.30;91.80
4520;DHT22;2272;49.226;8.108;2023-06-22T12:39:39;36.10;92.40
4520;DHT22;2272;49.226;8.108;2023-06-22T12:42:06;35.90;92.10
4520;DHT22;2272;49.226;8.108;2023-06-22T12:44:34;35.60;92.40
4520;DHT22;2272;49.226;8.108;2023-06-22T12:47:00;35.70;92.70
4520;DHT22;2272;49.226;8.108;2023-06-22T12:49:27;36.10;92.60
4520;DHT22;2272;49.226;8.108;2023-06-22T12:51:54;36.50;92.30
4520;DHT22;2272;49.226;8.108;2023-06-22T12:54:21;36.80;91.70
4520;DHT22;2272;49.226;8.108;2023-06-22T12:56:50;36.80;91.70
4520;DHT22;2272;49.226;8.108;2023-06-22T12:59:16;36.60;91.40
4520;DHT22;2272;49.226;8.108;2023-06-22T13:01:43;36.30;91.60
4520;DHT22;2272;49.226;8.108;2023-06-22T13:04:11;36.00;91.40
4520;DHT22;2272;49.226;8.108;2023-06-22T13:06:40;35.50;92.50
4520;DHT22;2272;49.226;8.108;2023-06-22T13:09:06;35.60;93.10
4520;DHT22;2272;49.226;8.108;2023-06-22T13:11:34;35.90;92.80
4520;DHT22;2272;49.226;8.108;2023-06-22T13:14:02;36.10;92.00
4520;DHT22;2272;49.226;8.108;2023-06-22T13:16:29;36.30;91.00
4520;DHT22;2272;49.226;8.108;2023-06-22T13:18:55;36.10;90.40
4520;DHT22;2272;49.226;8.108;2023-06-22T13:21:22;36.00;90.60
4520;DHT22;2272;49.226;8.108;2023-06-22T13:23:49;36.00;90.50
4520;DHT22;2272;49.226;8.108;2023-06-22T13:26:15;35.90;90.80
4520;DHT22;2272;49.226;8.108;2023-06-22T13:28:42;35.70;91.40
4520;DHT22;2272;49.226;8.108;2023-06-22T13:31:10;35.70;90.90
4520;DHT22;2272;49.226;8.108;2023-06-22T13:33:38;35.60;90.60
4520;DHT22;2272;49.226;8.108;2023-06-22T13:36:06;35.40;90.70
4520;DHT22;2272;49.226;8.108;2023-06-22T13:41:00;34.50;91.50
4520;DHT22;2272;49.226;8.108;2023-06-22T13:43:27;34.10;92.20
4520;DHT22;2272;49.226;8.108;2023-06-22T13:45:53;33.60;92.30
4520;DHT22;2272;49.226;8.108;2023-06-22T13:48:21;33.20;93.10
4520;DHT22;2272;49.226;8.108;2023-06-22T13:50:49;32.60;94.00
4520;DHT22;2272;49.226;8.108;2023-06-22T13:53:15;32.10;94.40
4520;DHT22;2272;49.226;8.108;2023-06-22T13:55:42;31.60;95.10
4520;DHT22;2272;49.226;8.108;2023-06-22T13:58:09;31.10;98.30
4520;DHT22;2272;49.226;8.108;2023-06-22T14:00:35;30.60;99.90
4520;DHT22;2272;49.226;8.108;2023-06-22T14:03:02;29.90;99.90
4520;DHT22;2272;49.226;8.108;2023-06-22T14:05:30;29.30;99.90
4520;DHT22;2272;49.226;8.108;2023-06-22T14:07:57;28.70;99.90
4520;DHT22;2272;49.226;8.108;2023-06-22T14:10:24;28.40;99.90
4520;DHT22;2272;49.226;8.108;2023-06-22T14:12:51;28.40;99.90
4520;DHT22;2272;49.226;8.108;2023-06-22T14:15:18;28.60;99.90
4520;DHT22;2272;49.226;8.108;2023-06-22T14:17:45;28.80;99.90
4520;DHT22;2272;49.226;8.108;2023-06-22T14:20:12;29.20;99.90
4520;DHT22;2272;49.226;8.108;2023-06-22T14:22:40;29.40;99.90
4520;DHT22;2272;49.226;8.108;2023-06-22T14:25:08;29.50;99.90
4520;DHT22;2272;49.226;8.108;2023-06-22T14:27:34;29.50;99.90
4520;DHT22;2272;49.226;8.108;2023-06-22T14:30:01;29.60;99.90
4520;DHT22;2272;49.226;8.108;2023-06-22T14:32:28;29.70;99.90
4520;DHT22;2272;49.226;8.108;2023-06-22T14:34:56;29.70;99.90
4520;DHT22;2272;49.226;8.108;2023-06-22T14:37:22;29.70;99.90
4520;DHT22;2272;49.226;8.108;2023-06-22T14:39:50;29.90;99.90
4520;DHT22;2272;49.226;8.108;2023-06-22T14:42:17;30.20;99.90
4520;DHT22;2272;49.226;8.108;2023-06-22T14:44:44;30.60;99.90
4520;DHT22;2272;49.226;8.108;2023-06-22T14:47:10;31.20;99.90
4520;DHT22;2272;49.226;8.108;2023-06-22T14:49:37;31.70;99.90
4520;DHT22;2272;49.226;8.108;2023-06-22T14:52:04;32.30;99.90
4520;DHT22;2272;49.226;8.108;2023-06-22T14:54:31;32.70;99.90
4520;DHT22;2272;49.226;8.108;2023-06-22T14:56:59;33.00;99.90
4520;DHT22;2272;49.226;8.108;2023-06-22T14:59:26;33.10;99.90
4520;DHT22;2272;49.226;8.108;2023-06-22T15:01:53;33.30;99.90
4520;DHT22;2272;49.226;8.108;2023-06-22T15:04:19;33.40;99.90
4520;DHT22;2272;49.226;8.108;2023-06-22T15:06:46;33.40;99.90
4520;DHT22;2272;49.226;8.108;2023-06-22T15:09:12;33.50;99.90
4520;DHT22;2272;49.226;8.108;2023-06-22T15:11:39;33.60;99.90
4520;DHT22;2272;49.226;8.108;2023-06-22T15:14:07;33.60;99.90
4520;DHT22;2272;49.226;8.108;2023-06-22T15:16:34;33.60;99.90
4520;DHT22;2272;49.226;8.108;2023-06-22T15:19:01;33.70;99.90
4520;DHT22;2272;49.226;8.108;2023-06-22T15:21:27;33.60;99.90
4520;DHT22;2272;49.226;8.108;2023-06-22T15:23:54;33.20;99.90
4520;DHT22;2272;49.226;8.108;2023-06-22T15:26:21;32.90;99.90
4520;DHT22;2272;49.226;8.108;2023-06-22T15:28:47;32.60;99.90
4520;DHT22;2272;49.226;8.108;2023-06-22T15:31:15;32.40;99.90
4520;DHT22;2272;49.226;8.108;2023-06-22T15:33:42;32.30;99.90
4520;DHT22;2272;49.226;8.108;2023-06-22T15:36:09;32.40;99.90
4520;DHT22;2272;49.226;8.108;2023-06-22T15:38:35;32.70;99.90
4520;DHT22;2272;49.226;8.108;2023-06-22T15:41:02;32.80;99.90
4520;DHT22;2272;49.226;8.108;2023-06-22T15:43:29;32.60;99.90
4520;DHT22;2272;49.226;8.108;2023-06-22T15:45:55;32.30;99.90
4520;DHT22;2272;49.226;8.108;2023-06-22T15:48:23;32.10;99.90
4520;DHT22;2272;49.226;8.108;2023-06-22T15:50:50;32.20;99.90
4520;DHT22;2272;49.226;8.108;2023-06-22T15:53:17;32.50;99.90
4520;DHT22;2272;49.226;8.108;2023-06-22T15:55:44;32.70;99.90
4520;DHT22;2272;49.226;8.108;2023-06-22T15:58:12;32.90;99.90
4520;DHT22;2272;49.226;8.108;2023-06-22T16:00:41;33.00;99.90
4520;DHT22;2272;49.226;8.108;2023-06-22T16:03:08;33.00;99.90
4520;DHT22;2272;49.226;8.108;2023-06-22T16:05:36;33.10;99.90
4520;DHT22;2272;49.226;8.108;2023-06-22T16:08:08;33.10;99.90
4520;DHT22;2272;49.226;8.108;2023-06-22T16:10:36;33.10;99.90
4520;DHT22;2272;49.226;8.108;2023-06-22T16:13:03;33.20;99.90